sensor_id;sensor_type;location;lat;lon;timestamp;temperature;humidity
60701;DHT22;46541;49.894;10.886;2022-07-09T00:00:28;19.60;93.70
60701;DHT22;46541;49.894;10.886;2022-07-09T00:02:54;19.60;93.70
60701;DHT22;46541;49.894;10.886;2022-07-09T00:05:21;19.60;94.00
60701;DHT22;46541;49.894;10.886;2022-07-09T00:07:48;19.60;94.10
60701;DHT22;46541;49.894;10.886;2022-07-09T00:10:15;19.50;94.20
60701;DHT22;46541;49.894;10.886;2022-07-09T00:12:42;19.50;94.80
60701;DHT22;46541;49.894;10.886;2022-07-09T00:15:09;19.50;95.20
60701;DHT22;46541;49.894;10.886;2022-07-09T00:17:36;19.50;95.10
60701;DHT22;46541;49.894;10.886;2022-07-09T00:20:04;19.40;95.30
60701;DHT22;46541;49.894;10.886;2022-07-09T00:22:32;19.30;95.50
60701;DHT22;46541;49.894;10.886;2022-07-09T00:24:59;19.20;95.90
60701;DHT22;46541;49.894;10.886;2022-07-09T00:27:26;19.20;96.20
60701;DHT22;46541;49.894;10.886;2022-07-09T00:29:53;19.20;96.60
60701;DHT22;46541;49.894;10.886;2022-07-09T00:32:20;19.20;96.70
60701;DHT22;46541;49.894;10.886;2022-07-09T00:34:46;19.20;96.90
60701;DHT22;46541;49.894;10.886;2022-07-09T00:37:14;19.20;97.20
60701;DHT22;46541;49.894;10.886;2022-07-09T00:39:40;19.10;97.40
60701;DHT22;46541;49.894;10.886;2022-07-09T00:42:09;19.10;97.60
60701;DHT22;46541;49.894;10.886;2022-07-09T00:44:36;19.10;97.70
60701;DHT22;46541;49.894;10.886;2022-07-09T00:47:05;19.10;98.10
60701;DHT22;46541;49.894;10.886;2022-07-09T00:49:37;19.10;98.30
60701;DHT22;46541;49.894;10.886;2022-07-09T00:52:05;19.00;98.50
60701;DHT22;46541;49.894;10.886;2022-07-09T00:54:34;18.90;98.80
60701;DHT22;46541;49.894;10.886;2022-07-09T00:57:02;18.90;99.20
60701;DHT22;46541;49.894;10.886;2022-07-09T00:59:30;18.90;99.40
60701;DHT22;46541;49.894;10.886;2022-07-09T01:01:57;18.80;99.60
60701;DHT22;46541;49.894;10.886;2022-07-09T01:04:25;18.80;99.40
60701;DHT22;46541;49.894;10.886;2022-07-09T01:06:52;18.80;99.40
60701;DHT22;46541;49.894;10.886;2022-07-09T01:09:18;18.80;99.60
60701;DHT22;46541;49.894;10.886;2022-07-09T01:11:46;18.80;99.60
60701;DHT22;46541;49.894;10.886;2022-07-09T01:14:14;18.80;99.80
60701;DHT22;46541;49.894;10.886;2022-07-09T01:16:41;18.80;99.80
60701;DHT22;46541;49.894;10.886;2022-07-09T01:19:07;18.80;99.90
60701;DHT22;46541;49.894;10.886;2022-07-09T01:21:35;18.80;99.90
60701;DHT22;46541;49.894;10.886;2022-07-09T01:24:02;18.80;99.90
60701;DHT22;46541;49.894;10.886;2022-07-09T01:26:29;18.80;99.90
60701;DHT22;46541;49.894;10.886;2022-07-09T01:28:56;18.80;99.90
60701;DHT22;46541;49.894;10.886;2022-07-09T01:31:23;18.70;99.90
60701;DHT22;46541;49.894;10.886;2022-07-09T01:33:50;18.70;99.90
60701;DHT22;46541;49.894;10.886;2022-07-09T01:36:17;18.70;99.90
60701;DHT22;46541;49.894;10.886;2022-07-09T01:38:43;18.70;99.90
60701;DHT22;46541;49.894;10.886;2022-07-09T01:41:10;18.70;99.90
60701;DHT22;46541;49.894;10.886;2022-07-09T01:43:37;18.60;99.90
60701;DHT22;46541;49.894;10.886;2022-07-09T01:46:04;18.70;99.90
60701;DHT22;46541;49.894;10.886;2022-07-09T01:48:33;18.70;99.90
60701;DHT22;46541;49.894;10.886;2022-07-09T01:51:02;18.60;99.90
60701;DHT22;46541;49.894;10.886;2022-07-09T01:53:29;18.60;99.90
60701;DHT22;46541;49.894;10.886;2022-07-09T01:55:56;18.60;99.90
60701;DHT22;46541;49.894;10.886;2022-07-09T01:58:23;18.60;99.90
60701;DHT22;46541;49.894;10.886;2022-07-09T02:00:50;18.50;99.90
60701;DHT22;46541;49.894;10.886;2022-07-09T02:03:17;18.50;99.90
60701;DHT22;46541;49.894;10.886;2022-07-09T02:05:44;18.50;99.90
60701;DHT22;46541;49.894;10.886;2022-07-09T02:08:10;18.60;99.90
60701;DHT22;46541;49.894;10.886;2022-07-09T02:10:37;18.60;99.90
60701;DHT22;46541;49.894;10.886;2022-07-09T02:13:04;18.60;99.90
60701;DHT22;46541;49.894;10.886;2022-07-09T02:15:31;18.60;99.90
60701;DHT22;46541;49.894;10.886;2022-07-09T02:17:58;18.60;99.90
60701;DHT22;46541;49.894;10.886;2022-07-09T02:20:25;18.60;99.90
60701;DHT22;46541;49.894;10.886;2022-07-09T02:22:52;18.60;99.90
60701;DHT22;46541;49.894;10.886;2022-07-09T02:25:19;18.60;99.90
60701;DHT22;46541;49.894;10.886;2022-07-09T02:27:46;18.50;99.90
60701;DHT22;46541;49.894;10.886;2022-07-09T02:30:12;18.50;99.90
60701;DHT22;46541;49.894;10.886;2022-07-09T02:32:39;18.50;99.90
60701;DHT22;46541;49.894;10.886;2022-07-09T02:35:07;18.50;99.90
60701;DHT22;46541;49.894;10.886;2022-07-09T02:37:34;18.40;99.90
60701;DHT22;46541;49.894;10.886;2022-07-09T02:40:02;18.40;99.90
60701;DHT22;46541;49.894;10.886;2022-07-09T02:42:29;18.40;99.90
60701;DHT22;46541;49.894;10.886;2022-07-09T02:44:55;18.40;99.90
60701;DHT22;46541;49.894;10.886;2022-07-09T02:47:22;18.30;99.90
60701;DHT22;46541;49.894;10.886;2022-07-09T02:49:49;18.30;99.90
60701;DHT22;46541;49.894;10.886;2022-07-09T02:52:16;18.30;99.90
60701;DHT22;46541;49.894;10.886;2022-07-09T02:54:42;18.30;99.90
60701;DHT22;46541;49.894;10.886;2022-07-09T02:57:09;18.30;99.90
60701;DHT22;46541;49.894;10.886;2022-07-09T02:59:36;18.30;99.90
60701;DHT22;46541;49.894;10.886;2022-07-09T03:02:03;18.30;99.90
60701;DHT22;46541;49.894;10.886;2022-07-09T03:04:30;18.30;99.90
60701;DHT22;46541;49.894;10.886;2022-07-09T03:06:57;18.30;99.90
60701;DHT22;46541;49.894;10.886;2022-07-09T03:09:24;18.20;99.90
60701;DHT22;46541;49.894;10.886;2022-07-09T03:11:51;18.20;99.90
60701;DHT22;46541;49.894;10.886;2022-07-09T03:14:18;18.20;99.90
60701;DHT22;46541;49.894;10.886;2022-07-09T03:16:44;18.20;99.90
60701;DHT22;46541;49.894;10.886;2022-07-09T03:19:11;18.20;99.90
60701;DHT22;46541;49.894;10.886;2022-07-09T03:21:38;18.30;99.90
60701;DHT22;46541;49.894;10.886;2022-07-09T03:24:05;18.20;99.90
60701;DHT22;46541;49.894;10.886;2022-07-09T03:26:32;18.30;99.90
60701;DHT22;46541;49.894;10.886;2022-07-09T03:28:59;18.30;99.90
60701;DHT22;46541;49.894;10.886;2022-07-09T03:31:25;18.30;99.90
60701;DHT22;46541;49.894;10.886;2022-07-09T03:33:52;18.30;99.90
60701;DHT22;46541;49.894;10.886;2022-07-09T03:36:21;18.20;99.90
60701;DHT22;46541;49.894;10.886;2022-07-09T03:38:48;18.20;99.90
60701;DHT22;46541;49.894;10.886;2022-07-09T03:41:15;18.20;99.90
60701;DHT22;46541;49.894;10.886;2022-07-09T03:43:41;18.20;99.90
60701;DHT22;46541;49.894;10.886;2022-07-09T03:46:08;18.20;99.90
60701;DHT22;46541;49.894;10.886;2022-07-09T03:48:35;18.30;99.90
60701;DHT22;46541;49.894;10.886;2022-07-09T03:51:04;18.20;99.90
60701;DHT22;46541;49.894;10.886;2022-07-09T03:53:30;18.20;99.90
60701;DHT22;46541;49.894;10.886;2022-07-09T03:55:57;18.30;99.90
60701;DHT22;46541;49.894;10.886;2022-07-09T03:58:24;18.30;99.90
60701;DHT22;46541;49.894;10.886;2022-07-09T04:00:51;18.20;99.90
60701;DHT22;46541;49.894;10.886;2022-07-09T04:03:19;18.30;99.90
60701;DHT22;46541;49.894;10.886;2022-07-09T04:05:46;18.30;99.90
60701;DHT22;46541;49.894;10.886;2022-07-09T04:08:12;18.30;99.90
60701;DHT22;46541;49.894;10.886;2022-07-09T04:10:39;18.30;99.90
60701;DHT22;46541;49.894;10.886;2022-07-09T04:13:06;18.30;99.90
60701;DHT22;46541;49.894;10.886;2022-07-09T04:15:39;18.30;99.90
60701;DHT22;46541;49.894;10.886;2022-07-09T04:18:06;18.30;99.90
60701;DHT22;46541;49.894;10.886;2022-07-09T04:20:33;18.30;99.90
60701;DHT22;46541;49.894;10.886;2022-07-09T04:23:00;18.40;99.90
60701;DHT22;46541;49.894;10.886;2022-07-09T04:25:27;18.40;99.90
60701;DHT22;46541;49.894;10.886;2022-07-09T04:27:54;18.40;99.90
60701;DHT22;46541;49.894;10.886;2022-07-09T04:30:24;18.30;99.90
60701;DHT22;46541;49.894;10.886;2022-07-09T04:32:51;18.40;99.90
60701;DHT22;46541;49.894;10.886;2022-07-09T04:35:18;18.30;99.90
60701;DHT22;46541;49.894;10.886;2022-07-09T04:37:45;18.30;99.90
60701;DHT22;46541;49.894;10.886;2022-07-09T04:40:12;18.30;99.90
60701;DHT22;46541;49.894;10.886;2022-07-09T04:42:39;18.20;99.90
60701;DHT22;46541;49.894;10.886;2022-07-09T04:45:06;18.20;99.90
60701;DHT22;46541;49.894;10.886;2022-07-09T04:47:33;18.20;99.90
60701;DHT22;46541;49.894;10.886;2022-07-09T04:50:00;18.20;99.90
60701;DHT22;46541;49.894;10.886;2022-07-09T04:52:26;18.20;99.90
60701;DHT22;46541;49.894;10.886;2022-07-09T04:54:53;18.20;99.90
60701;DHT22;46541;49.894;10.886;2022-07-09T04:57:20;18.20;99.90
60701;DHT22;46541;49.894;10.886;2022-07-09T04:59:47;18.20;99.90
60701;DHT22;46541;49.894;10.886;2022-07-09T05:02:14;18.20;99.90
60701;DHT22;46541;49.894;10.886;2022-07-09T05:04:41;18.20;99.90
60701;DHT22;46541;49.894;10.886;2022-07-09T05:07:07;18.20;99.90
60701;DHT22;46541;49.894;10.886;2022-07-09T05:09:34;18.20;99.90
60701;DHT22;46541;49.894;10.886;2022-07-09T05:12:01;18.20;99.90
60701;DHT22;46541;49.894;10.886;2022-07-09T05:14:28;18.20;99.90
60701;DHT22;46541;49.894;10.886;2022-07-09T05:16:55;18.20;99.90
60701;DHT22;46541;49.894;10.886;2022-07-09T05:19:22;18.30;99.90
60701;DHT22;46541;49.894;10.886;2022-07-09T05:21:48;18.40;99.90
60701;DHT22;46541;49.894;10.886;2022-07-09T05:24:15;18.40;99.90
60701;DHT22;46541;49.894;10.886;2022-07-09T05:26:42;18.40;99.90
60701;DHT22;46541;49.894;10.886;2022-07-09T05:29:09;18.40;99.90
60701;DHT22;46541;49.894;10.886;2022-07-09T05:31:36;18.40;99.90
60701;DHT22;46541;49.894;10.886;2022-07-09T05:34:03;18.40;99.90
60701;DHT22;46541;49.894;10.886;2022-07-09T05:36:30;18.40;99.90
60701;DHT22;46541;49.894;10.886;2022-07-09T05:38:57;18.30;99.90
60701;DHT22;46541;49.894;10.886;2022-07-09T05:41:24;18.30;99.90
60701;DHT22;46541;49.894;10.886;2022-07-09T05:43:52;18.40;99.90
60701;DHT22;46541;49.894;10.886;2022-07-09T05:46:20;18.40;99.90
60701;DHT22;46541;49.894;10.886;2022-07-09T05:48:52;18.50;99.90
60701;DHT22;46541;49.894;10.886;2022-07-09T05:51:20;18.60;99.90
60701;DHT22;46541;49.894;10.886;2022-07-09T05:53:49;18.60;99.90
60701;DHT22;46541;49.894;10.886;2022-07-09T05:56:18;18.70;99.90
60701;DHT22;46541;49.894;10.886;2022-07-09T05:58:45;18.70;99.90
60701;DHT22;46541;49.894;10.886;2022-07-09T06:01:11;18.80;99.90
60701;DHT22;46541;49.894;10.886;2022-07-09T06:03:40;18.90;99.90
60701;DHT22;46541;49.894;10.886;2022-07-09T06:06:10;18.90;99.90
60701;DHT22;46541;49.894;10.886;2022-07-09T06:08:39;19.00;99.90
60701;DHT22;46541;49.894;10.886;2022-07-09T06:11:06;19.10;99.90
60701;DHT22;46541;49.894;10.886;2022-07-09T06:13:33;19.20;99.90
60701;DHT22;46541;49.894;10.886;2022-07-09T06:16:00;19.40;99.90
60701;DHT22;46541;49.894;10.886;2022-07-09T06:18:26;19.40;99.90
60701;DHT22;46541;49.894;10.886;2022-07-09T06:20:54;19.40;99.90
60701;DHT22;46541;49.894;10.886;2022-07-09T06:23:21;19.40;99.90
60701;DHT22;46541;49.894;10.886;2022-07-09T06:25:48;19.50;99.90
60701;DHT22;46541;49.894;10.886;2022-07-09T06:28:15;19.60;99.90
60701;DHT22;46541;49.894;10.886;2022-07-09T06:30:42;19.90;99.90
60701;DHT22;46541;49.894;10.886;2022-07-09T06:33:10;19.90;99.90
60701;DHT22;46541;49.894;10.886;2022-07-09T06:35:37;19.90;99.90
60701;DHT22;46541;49.894;10.886;2022-07-09T06:38:04;19.90;99.90
60701;DHT22;46541;49.894;10.886;2022-07-09T06:40:30;20.10;99.90
60701;DHT22;46541;49.894;10.886;2022-07-09T06:42:57;20.30;99.90
60701;DHT22;46541;49.894;10.886;2022-07-09T06:45:24;20.40;99.90
60701;DHT22;46541;49.894;10.886;2022-07-09T06:47:51;20.70;99.90
60701;DHT22;46541;49.894;10.886;2022-07-09T06:50:19;20.80;99.90
60701;DHT22;46541;49.894;10.886;2022-07-09T06:52:46;21.00;99.90
60701;DHT22;46541;49.894;10.886;2022-07-09T06:55:13;21.30;99.90
60701;DHT22;46541;49.894;10.886;2022-07-09T06:57:40;21.30;99.90
60701;DHT22;46541;49.894;10.886;2022-07-09T07:00:07;21.60;99.90
60701;DHT22;46541;49.894;10.886;2022-07-09T07:02:34;21.60;99.90
60701;DHT22;46541;49.894;10.886;2022-07-09T07:05:02;21.80;99.70
60701;DHT22;46541;49.894;10.886;2022-07-09T07:07:29;22.00;99.40
60701;DHT22;46541;49.894;10.886;2022-07-09T07:09:55;22.20;98.60
60701;DHT22;46541;49.894;10.886;2022-07-09T07:12:22;22.30;98.40
60701;DHT22;46541;49.894;10.886;2022-07-09T07:14:49;22.10;98.50
60701;DHT22;46541;49.894;10.886;2022-07-09T07:17:17;22.20;98.70
60701;DHT22;46541;49.894;10.886;2022-07-09T07:19:44;22.40;98.40
60701;DHT22;46541;49.894;10.886;2022-07-09T07:22:11;22.50;98.00
60701;DHT22;46541;49.894;10.886;2022-07-09T07:24:37;22.60;97.50
60701;DHT22;46541;49.894;10.886;2022-07-09T07:27:04;22.50;97.40
60701;DHT22;46541;49.894;10.886;2022-07-09T07:29:31;22.50;97.40
60701;DHT22;46541;49.894;10.886;2022-07-09T07:31:58;22.30;97.40
60701;DHT22;46541;49.894;10.886;2022-07-09T07:34:26;22.40;97.10
60701;DHT22;46541;49.894;10.886;2022-07-09T07:36:53;22.60;97.20
60701;DHT22;46541;49.894;10.886;2022-07-09T07:39:21;22.60;96.90
60701;DHT22;46541;49.894;10.886;2022-07-09T07:41:48;22.70;96.80
60701;DHT22;46541;49.894;10.886;2022-07-09T07:44:16;22.80;96.30
60701;DHT22;46541;49.894;10.886;2022-07-09T07:46:43;23.00;96.00
60701;DHT22;46541;49.894;10.886;2022-07-09T07:49:09;23.10;95.90
60701;DHT22;46541;49.894;10.886;2022-07-09T07:51:36;23.30;95.60
60701;DHT22;46541;49.894;10.886;2022-07-09T07:54:03;23.50;95.10
60701;DHT22;46541;49.894;10.886;2022-07-09T07:56:30;23.50;94.80
60701;DHT22;46541;49.894;10.886;2022-07-09T07:58:59;23.60;94.50
60701;DHT22;46541;49.894;10.886;2022-07-09T08:01:25;23.70;94.30
60701;DHT22;46541;49.894;10.886;2022-07-09T08:03:52;24.00;93.90
60701;DHT22;46541;49.894;10.886;2022-07-09T08:06:19;24.30;93.10
60701;DHT22;46541;49.894;10.886;2022-07-09T08:08:48;24.60;92.70
60701;DHT22;46541;49.894;10.886;2022-07-09T08:11:15;24.90;92.20
60701;DHT22;46541;49.894;10.886;2022-07-09T08:13:42;24.50;92.10
60701;DHT22;46541;49.894;10.886;2022-07-09T08:16:10;24.40;92.40
60701;DHT22;46541;49.894;10.886;2022-07-09T08:18:37;24.40;92.00
60701;DHT22;46541;49.894;10.886;2022-07-09T08:21:05;24.50;92.10
60701;DHT22;46541;49.894;10.886;2022-07-09T08:23:32;25.10;90.90
60701;DHT22;46541;49.894;10.886;2022-07-09T08:26:19;25.40;90.30
60701;DHT22;46541;49.894;10.886;2022-07-09T08:28:45;25.40;89.40
60701;DHT22;46541;49.894;10.886;2022-07-09T08:31:15;25.20;89.90
60701;DHT22;46541;49.894;10.886;2022-07-09T08:33:42;25.10;90.00
60701;DHT22;46541;49.894;10.886;2022-07-09T08:36:09;25.00;88.60
60701;DHT22;46541;49.894;10.886;2022-07-09T08:38:36;25.30;88.80
60701;DHT22;46541;49.894;10.886;2022-07-09T08:41:04;25.40;86.50
60701;DHT22;46541;49.894;10.886;2022-07-09T08:43:33;25.90;84.90
60701;DHT22;46541;49.894;10.886;2022-07-09T08:46:01;26.30;81.90
60701;DHT22;46541;49.894;10.886;2022-07-09T08:48:29;26.40;81.20
60701;DHT22;46541;49.894;10.886;2022-07-09T08:50:59;26.20;82.20
60701;DHT22;46541;49.894;10.886;2022-07-09T08:53:27;25.80;83.30
60701;DHT22;46541;49.894;10.886;2022-07-09T08:55:55;25.70;84.20
60701;DHT22;46541;49.894;10.886;2022-07-09T08:58:22;25.60;84.10
60701;DHT22;46541;49.894;10.886;2022-07-09T09:00:49;25.50;83.80
60701;DHT22;46541;49.894;10.886;2022-07-09T09:03:19;25.10;82.20
60701;DHT22;46541;49.894;10.886;2022-07-09T09:06:00;25.00;82.40
60701;DHT22;46541;49.894;10.886;2022-07-09T09:08:36;25.00;83.20
60701;DHT22;46541;49.894;10.886;2022-07-09T09:11:04;24.60;82.10
60701;DHT22;46541;49.894;10.886;2022-07-09T09:13:45;24.60;83.60
60701;DHT22;46541;49.894;10.886;2022-07-09T09:16:13;24.80;83.60
60701;DHT22;46541;49.894;10.886;2022-07-09T09:21:10;25.10;83.50
60701;DHT22;46541;49.894;10.886;2022-07-09T09:23:45;25.20;82.20
60701;DHT22;46541;49.894;10.886;2022-07-09T09:26:23;25.20;81.80
60701;DHT22;46541;49.894;10.886;2022-07-09T09:33:53;25.10;81.40
60701;DHT22;46541;49.894;10.886;2022-07-09T09:36:50;25.30;81.20
60701;DHT22;46541;49.894;10.886;2022-07-09T09:39:30;25.30;79.00
60701;DHT22;46541;49.894;10.886;2022-07-09T09:42:01;25.30;79.30
60701;DHT22;46541;49.894;10.886;2022-07-09T09:44:31;25.10;79.10
60701;DHT22;46541;49.894;10.886;2022-07-09T09:47:05;25.00;79.30
60701;DHT22;46541;49.894;10.886;2022-07-09T09:49:32;25.20;79.30
60701;DHT22;46541;49.894;10.886;2022-07-09T09:52:10;25.20;79.40
60701;DHT22;46541;49.894;10.886;2022-07-09T09:54:39;25.10;79.80
60701;DHT22;46541;49.894;10.886;2022-07-09T09:57:10;24.90;80.40
60701;DHT22;46541;49.894;10.886;2022-07-09T09:59:41;24.80;81.00
60701;DHT22;46541;49.894;10.886;2022-07-09T10:02:10;24.70;80.00
60701;DHT22;46541;49.894;10.886;2022-07-09T10:04:38;24.80;80.00
60701;DHT22;46541;49.894;10.886;2022-07-09T10:07:07;24.60;79.80
60701;DHT22;46541;49.894;10.886;2022-07-09T10:09:34;24.70;80.10
60701;DHT22;46541;49.894;10.886;2022-07-09T10:12:01;24.80;78.60
60701;DHT22;46541;49.894;10.886;2022-07-09T10:16:55;24.60;80.00
60701;DHT22;46541;49.894;10.886;2022-07-09T10:19:27;24.30;78.90
60701;DHT22;46541;49.894;10.886;2022-07-09T10:21:58;23.80;80.70
60701;DHT22;46541;49.894;10.886;2022-07-09T10:24:32;23.60;81.80
60701;DHT22;46541;49.894;10.886;2022-07-09T10:27:10;23.50;81.80
60701;DHT22;46541;49.894;10.886;2022-07-09T10:29:56;23.50;82.00
60701;DHT22;46541;49.894;10.886;2022-07-09T10:32:28;23.50;82.70
60701;DHT22;46541;49.894;10.886;2022-07-09T10:35:02;23.50;82.80
60701;DHT22;46541;49.894;10.886;2022-07-09T10:40:20;23.70;82.40
60701;DHT22;46541;49.894;10.886;2022-07-09T10:43:01;24.00;81.80
60701;DHT22;46541;49.894;10.886;2022-07-09T10:45:39;24.10;81.60
60701;DHT22;46541;49.894;10.886;2022-07-09T10:48:09;24.20;82.00
60701;DHT22;46541;49.894;10.886;2022-07-09T10:50:38;24.20;81.40
60701;DHT22;46541;49.894;10.886;2022-07-09T10:53:06;24.20;81.70
60701;DHT22;46541;49.894;10.886;2022-07-09T10:55:33;24.10;81.90
60701;DHT22;46541;49.894;10.886;2022-07-09T10:58:00;24.00;81.30
60701;DHT22;46541;49.894;10.886;2022-07-09T11:07:25;24.60;78.60
60701;DHT22;46541;49.894;10.886;2022-07-09T11:09:53;25.00;77.60
60701;DHT22;46541;49.894;10.886;2022-07-09T11:12:21;25.30;77.60
60701;DHT22;46541;49.894;10.886;2022-07-09T11:14:49;25.30;77.00
60701;DHT22;46541;49.894;10.886;2022-07-09T11:17:18;25.10;77.10
60701;DHT22;46541;49.894;10.886;2022-07-09T11:19:46;25.20;77.00
60701;DHT22;46541;49.894;10.886;2022-07-09T11:22:15;25.40;76.60
60701;DHT22;46541;49.894;10.886;2022-07-09T11:24:42;25.30;76.40
60701;DHT22;46541;49.894;10.886;2022-07-09T11:27:09;25.40;76.40
60701;DHT22;46541;49.894;10.886;2022-07-09T11:29:36;25.50;76.70
60701;DHT22;46541;49.894;10.886;2022-07-09T11:32:04;25.50;76.50
60701;DHT22;46541;49.894;10.886;2022-07-09T11:34:31;25.70;75.40
60701;DHT22;46541;49.894;10.886;2022-07-09T11:36:59;25.90;73.90
60701;DHT22;46541;49.894;10.886;2022-07-09T11:39:33;26.00;72.30
60701;DHT22;46541;49.894;10.886;2022-07-09T11:42:04;25.90;73.70
60701;DHT22;46541;49.894;10.886;2022-07-09T11:44:32;26.10;73.10
60701;DHT22;46541;49.894;10.886;2022-07-09T11:47:09;26.00;72.00
60701;DHT22;46541;49.894;10.886;2022-07-09T11:49:44;26.30;72.00
60701;DHT22;46541;49.894;10.886;2022-07-09T11:52:19;26.60;71.80
60701;DHT22;46541;49.894;10.886;2022-07-09T11:54:59;26.30;71.50
60701;DHT22;46541;49.894;10.886;2022-07-09T11:57:27;26.00;71.70
60701;DHT22;46541;49.894;10.886;2022-07-09T11:59:54;25.60;70.70
60701;DHT22;46541;49.894;10.886;2022-07-09T12:02:31;26.00;70.10
60701;DHT22;46541;49.894;10.886;2022-07-09T12:04:59;26.80;69.30
60701;DHT22;46541;49.894;10.886;2022-07-09T12:07:26;27.20;67.80
60701;DHT22;46541;49.894;10.886;2022-07-09T12:10:02;27.50;67.00
60701;DHT22;46541;49.894;10.886;2022-07-09T12:12:32;27.50;66.20
60701;DHT22;46541;49.894;10.886;2022-07-09T12:15:00;27.50;66.80
60701;DHT22;46541;49.894;10.886;2022-07-09T12:17:34;27.30;66.00
60701;DHT22;46541;49.894;10.886;2022-07-09T12:20:01;27.20;65.60
60701;DHT22;46541;49.894;10.886;2022-07-09T12:22:33;27.30;65.70
60701;DHT22;46541;49.894;10.886;2022-07-09T12:25:00;27.30;65.20
60701;DHT22;46541;49.894;10.886;2022-07-09T12:27:27;26.90;66.10
60701;DHT22;46541;49.894;10.886;2022-07-09T12:29:54;26.50;67.20
60701;DHT22;46541;49.894;10.886;2022-07-09T12:32:20;26.20;67.90
60701;DHT22;46541;49.894;10.886;2022-07-09T12:34:47;25.80;68.00
60701;DHT22;46541;49.894;10.886;2022-07-09T12:37:14;25.20;68.10
60701;DHT22;46541;49.894;10.886;2022-07-09T12:39:41;24.90;71.50
60701;DHT22;46541;49.894;10.886;2022-07-09T12:42:16;24.70;73.80
60701;DHT22;46541;49.894;10.886;2022-07-09T12:44:44;24.40;75.70
60701;DHT22;46541;49.894;10.886;2022-07-09T12:47:11;24.30;76.50
60701;DHT22;46541;49.894;10.886;2022-07-09T12:49:38;24.20;76.90
60701;DHT22;46541;49.894;10.886;2022-07-09T12:52:05;24.20;78.20
60701;DHT22;46541;49.894;10.886;2022-07-09T12:54:32;24.30;76.90
60701;DHT22;46541;49.894;10.886;2022-07-09T12:56:59;24.40;76.90
60701;DHT22;46541;49.894;10.886;2022-07-09T12:59:36;24.40;76.80
60701;DHT22;46541;49.894;10.886;2022-07-09T13:02:04;24.50;77.70
60701;DHT22;46541;49.894;10.886;2022-07-09T13:04:31;24.60;77.50
60701;DHT22;46541;49.894;10.886;2022-07-09T13:06:58;24.90;76.00
60701;DHT22;46541;49.894;10.886;2022-07-09T13:09:25;25.20;76.10
60701;DHT22;46541;49.894;10.886;2022-07-09T13:11:52;25.50;75.20
60701;DHT22;46541;49.894;10.886;2022-07-09T13:14:19;25.70;74.90
60701;DHT22;46541;49.894;10.886;2022-07-09T13:16:45;25.90;74.00
60701;DHT22;46541;49.894;10.886;2022-07-09T13:19:32;26.00;72.70
60701;DHT22;46541;49.894;10.886;2022-07-09T13:21:59;25.90;72.40
60701;DHT22;46541;49.894;10.886;2022-07-09T13:24:26;25.90;72.70
60701;DHT22;46541;49.894;10.886;2022-07-09T13:26:53;26.00;72.40
60701;DHT22;46541;49.894;10.886;2022-07-09T13:29:20;26.10;71.80
60701;DHT22;46541;49.894;10.886;2022-07-09T13:31:47;26.10;71.90
60701;DHT22;46541;49.894;10.886;2022-07-09T13:34:13;26.20;71.70
60701;DHT22;46541;49.894;10.886;2022-07-09T13:36:40;26.10;71.80
60701;DHT22;46541;49.894;10.886;2022-07-09T13:39:07;26.10;70.90
60701;DHT22;46541;49.894;10.886;2022-07-09T13:41:34;26.20;71.10
60701;DHT22;46541;49.894;10.886;2022-07-09T13:44:00;26.00;71.80
60701;DHT22;46541;49.894;10.886;2022-07-09T13:46:28;25.90;70.40
60701;DHT22;46541;49.894;10.886;2022-07-09T13:48:55;25.90;70.80
60701;DHT22;46541;49.894;10.886;2022-07-09T13:51:21;25.90;71.20
60701;DHT22;46541;49.894;10.886;2022-07-09T13:53:48;25.90;71.40
60701;DHT22;46541;49.894;10.886;2022-07-09T13:56:16;25.80;71.10
60701;DHT22;46541;49.894;10.886;2022-07-09T13:58:46;25.70;71.80
60701;DHT22;46541;49.894;10.886;2022-07-09T14:01:13;25.60;71.50
60701;DHT22;46541;49.894;10.886;2022-07-09T14:03:41;25.30;70.90
60701;DHT22;46541;49.894;10.886;2022-07-09T14:06:08;25.20;71.80
60701;DHT22;46541;49.894;10.886;2022-07-09T14:08:55;25.10;72.40
60701;DHT22;46541;49.894;10.886;2022-07-09T14:11:22;25.00;72.40
60701;DHT22;46541;49.894;10.886;2022-07-09T14:13:49;25.00;72.00
60701;DHT22;46541;49.894;10.886;2022-07-09T14:16:18;24.90;72.30
60701;DHT22;46541;49.894;10.886;2022-07-09T14:18:45;24.80;72.50
60701;DHT22;46541;49.894;10.886;2022-07-09T14:21:12;24.80;72.00
60701;DHT22;46541;49.894;10.886;2022-07-09T14:23:39;24.70;71.80
60701;DHT22;46541;49.894;10.886;2022-07-09T14:26:06;24.80;72.20
60701;DHT22;46541;49.894;10.886;2022-07-09T14:28:33;25.00;71.90
60701;DHT22;46541;49.894;10.886;2022-07-09T14:31:00;25.10;71.40
60701;DHT22;46541;49.894;10.886;2022-07-09T14:33:27;25.20;70.80
60701;DHT22;46541;49.894;10.886;2022-07-09T14:35:54;25.20;71.30
60701;DHT22;46541;49.894;10.886;2022-07-09T14:38:21;25.30;71.60
60701;DHT22;46541;49.894;10.886;2022-07-09T14:40:48;25.30;71.80
60701;DHT22;46541;49.894;10.886;2022-07-09T14:43:15;25.40;70.80
60701;DHT22;46541;49.894;10.886;2022-07-09T14:45:42;25.50;71.40
60701;DHT22;46541;49.894;10.886;2022-07-09T14:48:09;25.70;70.60
60701;DHT22;46541;49.894;10.886;2022-07-09T14:50:39;25.90;70.20
60701;DHT22;46541;49.894;10.886;2022-07-09T14:53:05;26.20;69.40
60701;DHT22;46541;49.894;10.886;2022-07-09T14:55:33;26.40;68.20
60701;DHT22;46541;49.894;10.886;2022-07-09T14:58:02;26.60;67.10
60701;DHT22;46541;49.894;10.886;2022-07-09T15:00:29;26.60;67.80
60701;DHT22;46541;49.894;10.886;2022-07-09T15:02:56;26.30;67.70
60701;DHT22;46541;49.894;10.886;2022-07-09T15:05:23;25.70;68.60
60701;DHT22;46541;49.894;10.886;2022-07-09T15:07:50;25.50;69.70
60701;DHT22;46541;49.894;10.886;2022-07-09T15:10:17;25.40;69.50
60701;DHT22;46541;49.894;10.886;2022-07-09T15:12:44;25.20;69.30
60701;DHT22;46541;49.894;10.886;2022-07-09T15:15:10;25.00;69.20
60701;DHT22;46541;49.894;10.886;2022-07-09T15:17:37;24.80;69.30
60701;DHT22;46541;49.894;10.886;2022-07-09T15:20:10;24.60;69.60
60701;DHT22;46541;49.894;10.886;2022-07-09T15:22:37;24.50;70.30
60701;DHT22;46541;49.894;10.886;2022-07-09T15:25:05;24.40;70.40
60701;DHT22;46541;49.894;10.886;2022-07-09T15:27:32;24.30;70.30
60701;DHT22;46541;49.894;10.886;2022-07-09T15:29:59;24.20;71.20
60701;DHT22;46541;49.894;10.886;2022-07-09T15:32:27;24.20;71.60
60701;DHT22;46541;49.894;10.886;2022-07-09T15:34:54;24.00;71.10
60701;DHT22;46541;49.894;10.886;2022-07-09T15:37:23;23.90;71.40
60701;DHT22;46541;49.894;10.886;2022-07-09T15:39:50;23.90;72.20